Mc Faddin, Texas
Current Conditions -  °F | °C
As of 6:35 AM on Sunday 21 Dec 2014 (Local Time) from KPKV Reporting Station
Overcast Overcast  
Wind Chill: 52°   Ceiling: 1700
Heat Index: 52°   Visibility: 10mi
Dew Point: 51°   Wind: 8mph
Humidity: 95%   Direction: 40°NE
Pressure: 30.1"   Gusts: NA
Location:  28.5526°N, 97.018°W
Report Text: KPKV 211235Z AUTO 04007KT 10SM OVC017 11/11 A3010 RMK AO2 T01130105
Loading
Personal Weather Stations






























Interactive Weather Map New forecast layout! Learn more

10-Day Weather Forecast

Advertisements
Track Severe Weather on mobile